sensor_id;sensor_type;location;lat;lon;timestamp;P1;durP1;ratioP1;P2;durP2;ratioP2
17844;SDS011;9047;53.486;10.218;2022-09-21T00:01:55;9.25;;;4.70;;
17844;SDS011;9047;53.486;10.218;2022-09-21T00:04:22;8.63;;;4.47;;
17844;SDS011;9047;53.486;10.218;2022-09-21T00:06:49;8.43;;;4.00;;
17844;SDS011;9047;53.486;10.218;2022-09-21T00:09:15;10.27;;;4.80;;
17844;SDS011;9047;53.486;10.218;2022-09-21T00:11:42;7.85;;;4.50;;
17844;SDS011;9047;53.486;10.218;2022-09-21T00:14:12;8.30;;;4.35;;
17844;SDS011;9047;53.486;10.218;2022-09-21T00:16:39;10.80;;;4.40;;
17844;SDS011;9047;53.486;10.218;2022-09-21T00:19:07;8.13;;;4.25;;
17844;SDS011;9047;53.486;10.218;2022-09-21T00:21:34;7.38;;;4.55;;
17844;SDS011;9047;53.486;10.218;2022-09-21T00:24:02;9.45;;;4.53;;
17844;SDS011;9047;53.486;10.218;2022-09-21T00:26:29;10.75;;;4.88;;
17844;SDS011;9047;53.486;10.218;2022-09-21T00:28:58;9.65;;;4.55;;
17844;SDS011;9047;53.486;10.218;2022-09-21T00:31:28;9.50;;;4.57;;
17844;SDS011;9047;53.486;10.218;2022-09-21T00:33:56;12.65;;;5.15;;
17844;SDS011;9047;53.486;10.218;2022-09-21T00:36:27;7.75;;;5.03;;
17844;SDS011;9047;53.486;10.218;2022-09-21T00:38:57;10.38;;;4.72;;
17844;SDS011;9047;53.486;10.218;2022-09-21T00:41:26;8.50;;;4.82;;
17844;SDS011;9047;53.486;10.218;2022-09-21T00:46:50;8.85;;;5.00;;
17844;SDS011;9047;53.486;10.218;2022-09-21T00:49:18;8.32;;;4.45;;
17844;SDS011;9047;53.486;10.218;2022-09-21T00:51:46;7.97;;;4.40;;
17844;SDS011;9047;53.486;10.218;2022-09-21T00:54:15;9.20;;;4.60;;
17844;SDS011;9047;53.486;10.218;2022-09-21T00:56:44;9.35;;;4.63;;
17844;SDS011;9047;53.486;10.218;2022-09-21T00:59:12;8.07;;;4.90;;
17844;SDS011;9047;53.486;10.218;2022-09-21T01:01:40;7.90;;;4.70;;
17844;SDS011;9047;53.486;10.218;2022-09-21T01:04:09;13.15;;;5.20;;
17844;SDS011;9047;53.486;10.218;2022-09-21T01:06:37;11.02;;;5.32;;
17844;SDS011;9047;53.486;10.218;2022-09-21T01:09:05;8.10;;;4.82;;
17844;SDS011;9047;53.486;10.218;2022-09-21T01:11:33;9.45;;;4.75;;
17844;SDS011;9047;53.486;10.218;2022-09-21T01:14:11;8.93;;;4.70;;
17844;SDS011;9047;53.486;10.218;2022-09-21T01:16:47;10.57;;;5.07;;
17844;SDS011;9047;53.486;10.218;2022-09-21T01:19:31;7.13;;;4.35;;
17844;SDS011;9047;53.486;10.218;2022-09-21T01:22:17;11.77;;;4.85;;
17844;SDS011;9047;53.486;10.218;2022-09-21T01:25:01;7.80;;;4.38;;
17844;SDS011;9047;53.486;10.218;2022-09-21T01:27:50;9.73;;;4.20;;
17844;SDS011;9047;53.486;10.218;2022-09-21T01:30:25;8.18;;;4.75;;
17844;SDS011;9047;53.486;10.218;2022-09-21T01:32:55;8.60;;;4.38;;
17844;SDS011;9047;53.486;10.218;2022-09-21T01:35:27;10.05;;;4.65;;
17844;SDS011;9047;53.486;10.218;2022-09-21T01:37:58;8.60;;;4.68;;
17844;SDS011;9047;53.486;10.218;2022-09-21T01:40:29;10.05;;;4.57;;
17844;SDS011;9047;53.486;10.218;2022-09-21T01:43:00;7.82;;;4.10;;
17844;SDS011;9047;53.486;10.218;2022-09-21T01:45:29;10.95;;;4.35;;
17844;SDS011;9047;53.486;10.218;2022-09-21T01:47:59;11.20;;;5.07;;
17844;SDS011;9047;53.486;10.218;2022-09-21T01:50:28;8.57;;;4.50;;
17844;SDS011;9047;53.486;10.218;2022-09-21T01:53:12;8.73;;;4.32;;
17844;SDS011;9047;53.486;10.218;2022-09-21T01:55:47;11.82;;;4.60;;
17844;SDS011;9047;53.486;10.218;2022-09-21T01:58:17;8.20;;;4.50;;
17844;SDS011;9047;53.486;10.218;2022-09-21T02:00:51;9.73;;;4.70;;
17844;SDS011;9047;53.486;10.218;2022-09-21T02:03:20;6.95;;;4.60;;
17844;SDS011;9047;53.486;10.218;2022-09-21T02:05:54;8.93;;;4.43;;
17844;SDS011;9047;53.486;10.218;2022-09-21T02:08:22;10.25;;;5.22;;
17844;SDS011;9047;53.486;10.218;2022-09-21T02:10:50;10.40;;;5.00;;
17844;SDS011;9047;53.486;10.218;2022-09-21T02:13:21;10.50;;;5.38;;
17844;SDS011;9047;53.486;10.218;2022-09-21T02:16:01;12.75;;;4.63;;
17844;SDS011;9047;53.486;10.218;2022-09-21T02:18:41;12.52;;;5.18;;
17844;SDS011;9047;53.486;10.218;2022-09-21T02:21:14;8.75;;;5.07;;
17844;SDS011;9047;53.486;10.218;2022-09-21T02:23:49;7.82;;;5.03;;
17844;SDS011;9047;53.486;10.218;2022-09-21T02:26:25;10.98;;;4.60;;
17844;SDS011;9047;53.486;10.218;2022-09-21T02:29:00;9.65;;;4.72;;
17844;SDS011;9047;53.486;10.218;2022-09-21T02:31:38;10.40;;;4.93;;
17844;SDS011;9047;53.486;10.218;2022-09-21T02:34:09;8.98;;;4.72;;
17844;SDS011;9047;53.486;10.218;2022-09-21T02:36:45;10.50;;;4.70;;
17844;SDS011;9047;53.486;10.218;2022-09-21T02:39:15;12.00;;;4.65;;
17844;SDS011;9047;53.486;10.218;2022-09-21T02:41:48;12.10;;;5.10;;
17844;SDS011;9047;53.486;10.218;2022-09-21T02:44:23;10.65;;;5.65;;
17844;SDS011;9047;53.486;10.218;2022-09-21T02:46:59;11.88;;;4.95;;
17844;SDS011;9047;53.486;10.218;2022-09-21T02:49:33;9.13;;;5.05;;
17844;SDS011;9047;53.486;10.218;2022-09-21T02:52:03;8.98;;;4.88;;
17844;SDS011;9047;53.486;10.218;2022-09-21T02:54:35;15.20;;;5.90;;
17844;SDS011;9047;53.486;10.218;2022-09-21T02:57:05;11.50;;;5.68;;
17844;SDS011;9047;53.486;10.218;2022-09-21T02:59:32;10.85;;;5.43;;
17844;SDS011;9047;53.486;10.218;2022-09-21T03:02:01;12.85;;;6.03;;
17844;SDS011;9047;53.486;10.218;2022-09-21T03:04:30;11.35;;;5.95;;
17844;SDS011;9047;53.486;10.218;2022-09-21T03:06:58;9.63;;;5.78;;
17844;SDS011;9047;53.486;10.218;2022-09-21T03:09:24;13.07;;;6.55;;
17844;SDS011;9047;53.486;10.218;2022-09-21T03:11:51;12.00;;;5.95;;
17844;SDS011;9047;53.486;10.218;2022-09-21T03:14:18;11.85;;;5.88;;
17844;SDS011;9047;53.486;10.218;2022-09-21T03:16:45;11.65;;;5.97;;
17844;SDS011;9047;53.486;10.218;2022-09-21T03:19:13;11.60;;;6.32;;
17844;SDS011;9047;53.486;10.218;2022-09-21T03:21:41;10.35;;;5.32;;
17844;SDS011;9047;53.486;10.218;2022-09-21T03:24:10;9.27;;;5.40;;
17844;SDS011;9047;53.486;10.218;2022-09-21T03:26:37;10.13;;;5.60;;
17844;SDS011;9047;53.486;10.218;2022-09-21T03:29:04;10.52;;;4.93;;
17844;SDS011;9047;53.486;10.218;2022-09-21T03:31:30;9.65;;;5.20;;
17844;SDS011;9047;53.486;10.218;2022-09-21T03:33:58;13.18;;;5.75;;
17844;SDS011;9047;53.486;10.218;2022-09-21T03:36:26;9.38;;;4.72;;
17844;SDS011;9047;53.486;10.218;2022-09-21T03:38:53;9.70;;;4.90;;
17844;SDS011;9047;53.486;10.218;2022-09-21T03:41:20;10.13;;;5.72;;
17844;SDS011;9047;53.486;10.218;2022-09-21T03:43:47;9.68;;;5.28;;
17844;SDS011;9047;53.486;10.218;2022-09-21T03:46:14;13.30;;;5.68;;
17844;SDS011;9047;53.486;10.218;2022-09-21T03:48:41;8.65;;;5.00;;
17844;SDS011;9047;53.486;10.218;2022-09-21T03:51:11;9.25;;;5.50;;
17844;SDS011;9047;53.486;10.218;2022-09-21T03:53:39;8.18;;;5.13;;
17844;SDS011;9047;53.486;10.218;2022-09-21T03:56:06;9.38;;;5.05;;
17844;SDS011;9047;53.486;10.218;2022-09-21T03:58:33;7.07;;;5.10;;
17844;SDS011;9047;53.486;10.218;2022-09-21T04:01:00;10.10;;;5.13;;
17844;SDS011;9047;53.486;10.218;2022-09-21T04:03:28;11.43;;;5.15;;
17844;SDS011;9047;53.486;10.218;2022-09-21T04:05:55;7.82;;;4.90;;
17844;SDS011;9047;53.486;10.218;2022-09-21T04:08:22;12.02;;;4.80;;
17844;SDS011;9047;53.486;10.218;2022-09-21T04:10:50;13.93;;;5.28;;
17844;SDS011;9047;53.486;10.218;2022-09-21T04:13:18;10.57;;;5.32;;
17844;SDS011;9047;53.486;10.218;2022-09-21T04:15:44;12.88;;;5.80;;
17844;SDS011;9047;53.486;10.218;2022-09-21T04:18:11;10.02;;;5.57;;
17844;SDS011;9047;53.486;10.218;2022-09-21T04:20:39;13.02;;;5.70;;
17844;SDS011;9047;53.486;10.218;2022-09-21T04:23:06;12.98;;;5.60;;
17844;SDS011;9047;53.486;10.218;2022-09-21T04:25:34;10.70;;;5.70;;
17844;SDS011;9047;53.486;10.218;2022-09-21T04:30:46;10.07;;;5.43;;
17844;SDS011;9047;53.486;10.218;2022-09-21T04:33:14;10.73;;;5.13;;
17844;SDS011;9047;53.486;10.218;2022-09-21T04:35:40;8.65;;;5.43;;
17844;SDS011;9047;53.486;10.218;2022-09-21T04:38:07;8.20;;;4.97;;
17844;SDS011;9047;53.486;10.218;2022-09-21T04:40:34;11.48;;;5.50;;
17844;SDS011;9047;53.486;10.218;2022-09-21T04:43:01;8.88;;;5.30;;
17844;SDS011;9047;53.486;10.218;2022-09-21T04:45:31;10.15;;;5.55;;
17844;SDS011;9047;53.486;10.218;2022-09-21T04:48:01;8.20;;;4.93;;
17844;SDS011;9047;53.486;10.218;2022-09-21T04:50:28;9.32;;;5.50;;
17844;SDS011;9047;53.486;10.218;2022-09-21T04:52:57;10.10;;;6.00;;
17844;SDS011;9047;53.486;10.218;2022-09-21T04:55:28;14.57;;;6.18;;
17844;SDS011;9047;53.486;10.218;2022-09-21T04:57:55;11.38;;;5.72;;
17844;SDS011;9047;53.486;10.218;2022-09-21T05:00:23;16.02;;;5.82;;
17844;SDS011;9047;53.486;10.218;2022-09-21T05:02:54;10.40;;;6.18;;
17844;SDS011;9047;53.486;10.218;2022-09-21T05:05:24;10.13;;;5.80;;
17844;SDS011;9047;53.486;10.218;2022-09-21T05:07:51;11.85;;;6.45;;
17844;SDS011;9047;53.486;10.218;2022-09-21T05:10:18;11.50;;;5.60;;
17844;SDS011;9047;53.486;10.218;2022-09-21T05:12:44;18.48;;;6.35;;
17844;SDS011;9047;53.486;10.218;2022-09-21T05:15:11;9.77;;;6.00;;
17844;SDS011;9047;53.486;10.218;2022-09-21T05:17:43;12.43;;;6.10;;
17844;SDS011;9047;53.486;10.218;2022-09-21T05:20:12;10.43;;;6.40;;
17844;SDS011;9047;53.486;10.218;2022-09-21T05:22:40;10.65;;;6.05;;
17844;SDS011;9047;53.486;10.218;2022-09-21T05:25:08;9.40;;;6.07;;
17844;SDS011;9047;53.486;10.218;2022-09-21T05:27:36;11.10;;;6.35;;
17844;SDS011;9047;53.486;10.218;2022-09-21T05:30:04;13.95;;;6.85;;
17844;SDS011;9047;53.486;10.218;2022-09-21T05:32:40;11.98;;;6.20;;
17844;SDS011;9047;53.486;10.218;2022-09-21T05:35:14;14.05;;;6.53;;
17844;SDS011;9047;53.486;10.218;2022-09-21T05:37:51;11.43;;;6.50;;
17844;SDS011;9047;53.486;10.218;2022-09-21T05:40:23;12.40;;;6.80;;
17844;SDS011;9047;53.486;10.218;2022-09-21T05:42:53;14.40;;;7.32;;
17844;SDS011;9047;53.486;10.218;2022-09-21T05:45:32;14.70;;;6.68;;
17844;SDS011;9047;53.486;10.218;2022-09-21T05:48:06;16.67;;;6.95;;
17844;SDS011;9047;53.486;10.218;2022-09-21T05:50:51;14.82;;;7.32;;
17844;SDS011;9047;53.486;10.218;2022-09-21T05:53:27;23.13;;;10.57;;
17844;SDS011;9047;53.486;10.218;2022-09-21T05:56:07;18.23;;;9.48;;
17844;SDS011;9047;53.486;10.218;2022-09-21T05:58:46;20.35;;;11.50;;
17844;SDS011;9047;53.486;10.218;2022-09-21T06:01:24;19.77;;;10.65;;
17844;SDS011;9047;53.486;10.218;2022-09-21T06:04:02;20.65;;;10.43;;
17844;SDS011;9047;53.486;10.218;2022-09-21T06:06:45;19.98;;;10.27;;
17844;SDS011;9047;53.486;10.218;2022-09-21T06:09:13;17.15;;;9.80;;
17844;SDS011;9047;53.486;10.218;2022-09-21T06:11:40;17.98;;;10.70;;
17844;SDS011;9047;53.486;10.218;2022-09-21T06:14:10;19.70;;;10.75;;
17844;SDS011;9047;53.486;10.218;2022-09-21T06:16:42;19.83;;;10.02;;
17844;SDS011;9047;53.486;10.218;2022-09-21T06:19:12;15.25;;;8.95;;
17844;SDS011;9047;53.486;10.218;2022-09-21T06:21:41;20.13;;;8.55;;
17844;SDS011;9047;53.486;10.218;2022-09-21T06:24:10;16.88;;;7.70;;
17844;SDS011;9047;53.486;10.218;2022-09-21T06:26:53;14.20;;;7.75;;
17844;SDS011;9047;53.486;10.218;2022-09-21T06:29:21;13.45;;;7.47;;
17844;SDS011;9047;53.486;10.218;2022-09-21T06:31:52;11.00;;;6.18;;
17844;SDS011;9047;53.486;10.218;2022-09-21T06:34:19;9.60;;;5.68;;
17844;SDS011;9047;53.486;10.218;2022-09-21T06:36:48;13.45;;;4.80;;
17844;SDS011;9047;53.486;10.218;2022-09-21T06:39:18;8.77;;;5.75;;
17844;SDS011;9047;53.486;10.218;2022-09-21T06:41:45;8.25;;;5.97;;
17844;SDS011;9047;53.486;10.218;2022-09-21T06:44:13;8.10;;;5.68;;
17844;SDS011;9047;53.486;10.218;2022-09-21T06:46:41;9.65;;;4.85;;
17844;SDS011;9047;53.486;10.218;2022-09-21T06:49:11;8.80;;;4.70;;
17844;SDS011;9047;53.486;10.218;2022-09-21T06:51:40;10.30;;;4.88;;
17844;SDS011;9047;53.486;10.218;2022-09-21T06:54:11;8.38;;;4.80;;
17844;SDS011;9047;53.486;10.218;2022-09-21T06:56:38;6.93;;;4.40;;
17844;SDS011;9047;53.486;10.218;2022-09-21T06:59:10;9.57;;;4.18;;
17844;SDS011;9047;53.486;10.218;2022-09-21T07:01:39;7.60;;;4.68;;
17844;SDS011;9047;53.486;10.218;2022-09-21T07:04:06;10.07;;;4.60;;
17844;SDS011;9047;53.486;10.218;2022-09-21T07:06:36;9.35;;;4.45;;
17844;SDS011;9047;53.486;10.218;2022-09-21T07:09:10;9.07;;;4.25;;
17844;SDS011;9047;53.486;10.218;2022-09-21T07:11:40;8.35;;;4.50;;
17844;SDS011;9047;53.486;10.218;2022-09-21T07:14:07;8.20;;;4.30;;
17844;SDS011;9047;53.486;10.218;2022-09-21T07:16:34;9.07;;;4.90;;
17844;SDS011;9047;53.486;10.218;2022-09-21T07:19:10;8.63;;;4.65;;
17844;SDS011;9047;53.486;10.218;2022-09-21T07:21:39;8.95;;;4.30;;
17844;SDS011;9047;53.486;10.218;2022-09-21T07:24:06;11.02;;;5.25;;
17844;SDS011;9047;53.486;10.218;2022-09-21T07:26:41;11.00;;;4.85;;
17844;SDS011;9047;53.486;10.218;2022-09-21T07:29:11;12.35;;;5.00;;
17844;SDS011;9047;53.486;10.218;2022-09-21T07:31:41;10.20;;;5.22;;
17844;SDS011;9047;53.486;10.218;2022-09-21T07:34:12;8.38;;;4.75;;
17844;SDS011;9047;53.486;10.218;2022-09-21T07:36:42;12.00;;;5.40;;
17844;SDS011;9047;53.486;10.218;2022-09-21T07:41:55;11.02;;;5.47;;
17844;SDS011;9047;53.486;10.218;2022-09-21T07:44:24;12.55;;;5.38;;
17844;SDS011;9047;53.486;10.218;2022-09-21T07:46:57;15.70;;;6.32;;
17844;SDS011;9047;53.486;10.218;2022-09-21T07:49:24;11.98;;;5.68;;
17844;SDS011;9047;53.486;10.218;2022-09-21T07:51:54;11.35;;;5.47;;
17844;SDS011;9047;53.486;10.218;2022-09-21T07:54:21;12.20;;;5.65;;
17844;SDS011;9047;53.486;10.218;2022-09-21T07:56:52;13.15;;;6.10;;
17844;SDS011;9047;53.486;10.218;2022-09-21T07:59:39;14.40;;;6.22;;
17844;SDS011;9047;53.486;10.218;2022-09-21T08:02:06;12.63;;;5.95;;
17844;SDS011;9047;53.486;10.218;2022-09-21T08:04:34;11.85;;;5.28;;
17844;SDS011;9047;53.486;10.218;2022-09-21T08:07:05;9.32;;;5.18;;
17844;SDS011;9047;53.486;10.218;2022-09-21T08:09:33;12.65;;;5.30;;
17844;SDS011;9047;53.486;10.218;2022-09-21T08:12:03;11.35;;;5.32;;
17844;SDS011;9047;53.486;10.218;2022-09-21T08:14:30;12.40;;;5.38;;
17844;SDS011;9047;53.486;10.218;2022-09-21T08:16:57;10.25;;;4.63;;
17844;SDS011;9047;53.486;10.218;2022-09-21T08:19:24;9.55;;;4.70;;
17844;SDS011;9047;53.486;10.218;2022-09-21T08:21:51;9.45;;;4.88;;
17844;SDS011;9047;53.486;10.218;2022-09-21T08:24:20;11.60;;;4.82;;
17844;SDS011;9047;53.486;10.218;2022-09-21T08:26:47;8.13;;;4.30;;
17844;SDS011;9047;53.486;10.218;2022-09-21T08:29:18;10.82;;;4.40;;
17844;SDS011;9047;53.486;10.218;2022-09-21T08:31:45;12.40;;;4.57;;
17844;SDS011;9047;53.486;10.218;2022-09-21T08:34:12;9.90;;;4.30;;
17844;SDS011;9047;53.486;10.218;2022-09-21T08:36:40;6.05;;;3.75;;
17844;SDS011;9047;53.486;10.218;2022-09-21T08:39:09;11.38;;;4.13;;
17844;SDS011;9047;53.486;10.218;2022-09-21T08:41:44;5.35;;;3.67;;
17844;SDS011;9047;53.486;10.218;2022-09-21T08:44:20;10.15;;;4.43;;
17844;SDS011;9047;53.486;10.218;2022-09-21T08:46:59;9.68;;;4.82;;
17844;SDS011;9047;53.486;10.218;2022-09-21T08:49:30;10.25;;;4.50;;
17844;SDS011;9047;53.486;10.218;2022-09-21T08:52:03;8.43;;;4.63;;
17844;SDS011;9047;53.486;10.218;2022-09-21T08:54:34;6.75;;;3.55;;
17844;SDS011;9047;53.486;10.218;2022-09-21T08:57:09;8.15;;;3.20;;
17844;SDS011;9047;53.486;10.218;2022-09-21T08:59:39;7.35;;;3.15;;
17844;SDS011;9047;53.486;10.218;2022-09-21T09:02:21;6.93;;;3.10;;
17844;SDS011;9047;53.486;10.218;2022-09-21T09:05:16;4.35;;;3.00;;
17844;SDS011;9047;53.486;10.218;2022-09-21T09:08:05;6.10;;;2.35;;
17844;SDS011;9047;53.486;10.218;2022-09-21T09:11:01;6.82;;;3.00;;
17844;SDS011;9047;53.486;10.218;2022-09-21T09:13:42;5.97;;;2.88;;
17844;SDS011;9047;53.486;10.218;2022-09-21T09:16:39;4.13;;;2.75;;
17844;SDS011;9047;53.486;10.218;2022-09-21T09:19:18;5.22;;;2.95;;
17844;SDS011;9047;53.486;10.218;2022-09-21T09:21:49;5.57;;;2.55;;
17844;SDS011;9047;53.486;10.218;2022-09-21T09:24:23;5.43;;;2.47;;
17844;SDS011;9047;53.486;10.218;2022-09-21T09:27:00;6.22;;;2.50;;
17844;SDS011;9047;53.486;10.218;2022-09-21T09:29:32;5.05;;;2.80;;
17844;SDS011;9047;53.486;10.218;2022-09-21T09:32:10;4.47;;;2.17;;
17844;SDS011;9047;53.486;10.218;2022-09-21T09:34:41;5.70;;;2.22;;
17844;SDS011;9047;53.486;10.218;2022-09-21T09:37:12;5.63;;;1.73;;
17844;SDS011;9047;53.486;10.218;2022-09-21T09:39:41;4.70;;;2.00;;
17844;SDS011;9047;53.486;10.218;2022-09-21T09:42:16;4.93;;;1.95;;
17844;SDS011;9047;53.486;10.218;2022-09-21T09:44:58;2.83;;;1.50;;
17844;SDS011;9047;53.486;10.218;2022-09-21T09:47:39;3.03;;;1.60;;
17844;SDS011;9047;53.486;10.218;2022-09-21T09:50:19;4.07;;;2.03;;
17844;SDS011;9047;53.486;10.218;2022-09-21T09:52:54;2.90;;;1.70;;
17844;SDS011;9047;53.486;10.218;2022-09-21T09:55:33;3.38;;;1.70;;
17844;SDS011;9047;53.486;10.218;2022-09-21T09:58:03;4.70;;;1.80;;
17844;SDS011;9047;53.486;10.218;2022-09-21T10:00:42;3.95;;;1.50;;
17844;SDS011;9047;53.486;10.218;2022-09-21T10:03:16;3.70;;;1.70;;
17844;SDS011;9047;53.486;10.218;2022-09-21T10:05:45;2.67;;;1.85;;
17844;SDS011;9047;53.486;10.218;2022-09-21T10:08:26;5.07;;;1.50;;
17844;SDS011;9047;53.486;10.218;2022-09-21T10:11:12;2.45;;;1.52;;
17844;SDS011;9047;53.486;10.218;2022-09-21T10:13:40;2.58;;;1.05;;
17844;SDS011;9047;53.486;10.218;2022-09-21T10:16:12;2.00;;;0.85;;
17844;SDS011;9047;53.486;10.218;2022-09-21T10:18:45;2.28;;;1.10;;
17844;SDS011;9047;53.486;10.218;2022-09-21T10:21:15;2.42;;;1.23;;
17844;SDS011;9047;53.486;10.218;2022-09-21T10:23:45;1.48;;;1.08;;
17844;SDS011;9047;53.486;10.218;2022-09-21T10:26:15;3.47;;;1.17;;
17844;SDS011;9047;53.486;10.218;2022-09-21T10:28:53;3.72;;;1.08;;
17844;SDS011;9047;53.486;10.218;2022-09-21T10:31:22;2.60;;;1.17;;
17844;SDS011;9047;53.486;10.218;2022-09-21T10:33:53;2.22;;;1.02;;
17844;SDS011;9047;53.486;10.218;2022-09-21T10:36:33;2.55;;;1.30;;
17844;SDS011;9047;53.486;10.218;2022-09-21T10:39:20;5.40;;;1.60;;
17844;SDS011;9047;53.486;10.218;2022-09-21T10:41:49;2.92;;;1.20;;
17844;SDS011;9047;53.486;10.218;2022-09-21T10:44:20;2.60;;;1.30;;
17844;SDS011;9047;53.486;10.218;2022-09-21T10:46:50;2.92;;;1.40;;
17844;SDS011;9047;53.486;10.218;2022-09-21T10:49:21;2.38;;;1.40;;
17844;SDS011;9047;53.486;10.218;2022-09-21T10:51:57;3.47;;;1.50;;
17844;SDS011;9047;53.486;10.218;2022-09-21T10:54:29;2.80;;;1.40;;
17844;SDS011;9047;53.486;10.218;2022-09-21T10:56:59;3.05;;;1.45;;
17844;SDS011;9047;53.486;10.218;2022-09-21T10:59:30;3.05;;;1.35;;
17844;SDS011;9047;53.486;10.218;2022-09-21T11:01:59;2.83;;;1.27;;
17844;SDS011;9047;53.486;10.218;2022-09-21T11:04:33;1.63;;;1.20;;
17844;SDS011;9047;53.486;10.218;2022-09-21T11:07:09;3.47;;;1.30;;
17844;SDS011;9047;53.486;10.218;2022-09-21T11:09:44;2.53;;;1.30;;
17844;SDS011;9047;53.486;10.218;2022-09-21T11:12:29;2.30;;;1.30;;
17844;SDS011;9047;53.486;10.218;2022-09-21T11:15:10;1.75;;;1.00;;
17844;SDS011;9047;53.486;10.218;2022-09-21T11:17:42;1.88;;;1.10;;
17844;SDS011;9047;53.486;10.218;2022-09-21T11:20:19;2.25;;;1.00;;
17844;SDS011;9047;53.486;10.218;2022-09-21T11:22:58;1.95;;;0.90;;
17844;SDS011;9047;53.486;10.218;2022-09-21T11:25:30;2.65;;;1.00;;
17844;SDS011;9047;53.486;10.218;2022-09-21T11:28:05;2.30;;;0.90;;
17844;SDS011;9047;53.486;10.218;2022-09-21T11:30:45;3.90;;;1.27;;
17844;SDS011;9047;53.486;10.218;2022-09-21T11:33:37;1.50;;;1.10;;
17844;SDS011;9047;53.486;10.218;2022-09-21T11:36:18;1.83;;;0.95;;
17844;SDS011;9047;53.486;10.218;2022-09-21T11:38:55;3.40;;;1.33;;
17844;SDS011;9047;53.486;10.218;2022-09-21T11:41:40;3.65;;;1.30;;
17844;SDS011;9047;53.486;10.218;2022-09-21T11:44:21;2.08;;;1.20;;
17844;SDS011;9047;53.486;10.218;2022-09-21T11:46:58;4.22;;;1.45;;
17844;SDS011;9047;53.486;10.218;2022-09-21T11:49:40;4.50;;;1.50;;
17844;SDS011;9047;53.486;10.218;2022-09-21T11:52:28;4.07;;;1.48;;
17844;SDS011;9047;53.486;10.218;2022-09-21T11:55:09;2.40;;;1.30;;
17844;SDS011;9047;53.486;10.218;2022-09-21T11:57:57;3.20;;;1.50;;
17844;SDS011;9047;53.486;10.218;2022-09-21T12:00:29;3.55;;;1.52;;
17844;SDS011;9047;53.486;10.218;2022-09-21T12:06:05;3.45;;;1.30;;
17844;SDS011;9047;53.486;10.218;2022-09-21T12:09:00;3.72;;;1.48;;
17844;SDS011;9047;53.486;10.218;2022-09-21T12:11:50;4.78;;;1.60;;
17844;SDS011;9047;53.486;10.218;2022-09-21T12:14:29;3.75;;;1.40;;
17844;SDS011;9047;53.486;10.218;2022-09-21T12:17:09;2.63;;;1.20;;
17844;SDS011;9047;53.486;10.218;2022-09-21T12:19:44;2.03;;;1.13;;
17844;SDS011;9047;53.486;10.218;2022-09-21T12:22:15;2.70;;;1.10;;
17844;SDS011;9047;53.486;10.218;2022-09-21T12:24:50;3.13;;;1.10;;
17844;SDS011;9047;53.486;10.218;2022-09-21T12:27:22;1.98;;;1.10;;
17844;SDS011;9047;53.486;10.218;2022-09-21T12:29:54;2.80;;;1.17;;
17844;SDS011;9047;53.486;10.218;2022-09-21T12:32:29;3.20;;;1.20;;
17844;SDS011;9047;53.486;10.218;2022-09-21T12:35:14;2.65;;;0.95;;
17844;SDS011;9047;53.486;10.218;2022-09-21T12:37:46;1.40;;;0.90;;
17844;SDS011;9047;53.486;10.218;2022-09-21T12:40:22;1.92;;;0.90;;
17844;SDS011;9047;53.486;10.218;2022-09-21T12:42:59;2.40;;;1.20;;
17844;SDS011;9047;53.486;10.218;2022-09-21T12:45:34;4.72;;;1.60;;
17844;SDS011;9047;53.486;10.218;2022-09-21T12:48:05;3.53;;;1.40;;
17844;SDS011;9047;53.486;10.218;2022-09-21T12:50:47;3.03;;;1.30;;
17844;SDS011;9047;53.486;10.218;2022-09-21T12:53:19;1.42;;;1.10;;
17844;SDS011;9047;53.486;10.218;2022-09-21T12:55:54;3.78;;;1.25;;
17844;SDS011;9047;53.486;10.218;2022-09-21T12:58:33;3.05;;;1.23;;
17844;SDS011;9047;53.486;10.218;2022-09-21T13:01:15;2.08;;;1.38;;
17844;SDS011;9047;53.486;10.218;2022-09-21T13:03:53;3.40;;;1.48;;
17844;SDS011;9047;53.486;10.218;2022-09-21T13:06:49;3.45;;;1.30;;
17844;SDS011;9047;53.486;10.218;2022-09-21T13:09:41;4.20;;;1.50;;
17844;SDS011;9047;53.486;10.218;2022-09-21T13:12:14;2.70;;;1.25;;
17844;SDS011;9047;53.486;10.218;2022-09-21T13:14:46;1.38;;;0.95;;
17844;SDS011;9047;53.486;10.218;2022-09-21T13:17:18;1.73;;;0.93;;
17844;SDS011;9047;53.486;10.218;2022-09-21T13:19:57;2.45;;;0.85;;
17844;SDS011;9047;53.486;10.218;2022-09-21T13:22:32;1.48;;;0.80;;
17844;SDS011;9047;53.486;10.218;2022-09-21T13:25:04;1.88;;;0.70;;
17844;SDS011;9047;53.486;10.218;2022-09-21T13:28:00;1.70;;;0.75;;
17844;SDS011;9047;53.486;10.218;2022-09-21T13:30:34;1.10;;;0.65;;
17844;SDS011;9047;53.486;10.218;2022-09-21T13:33:04;1.77;;;0.90;;
17844;SDS011;9047;53.486;10.218;2022-09-21T13:36:08;1.73;;;0.70;;
17844;SDS011;9047;53.486;10.218;2022-09-21T13:38:56;1.20;;;0.60;;
17844;SDS011;9047;53.486;10.218;2022-09-21T13:41:44;1.70;;;0.70;;
17844;SDS011;9047;53.486;10.218;2022-09-21T13:44:35;2.80;;;1.05;;
17844;SDS011;9047;53.486;10.218;2022-09-21T13:47:05;1.83;;;0.90;;
17844;SDS011;9047;53.486;10.218;2022-09-21T13:49:39;1.98;;;0.60;;
17844;SDS011;9047;53.486;10.218;2022-09-21T13:52:22;2.67;;;0.80;;
17844;SDS011;9047;53.486;10.218;2022-09-21T13:54:56;0.85;;;0.60;;
17844;SDS011;9047;53.486;10.218;2022-09-21T13:57:26;2.00;;;0.70;;
17844;SDS011;9047;53.486;10.218;2022-09-21T14:00:04;1.77;;;0.80;;
17844;SDS011;9047;53.486;10.218;2022-09-21T14:02:52;1.50;;;0.93;;
17844;SDS011;9047;53.486;10.218;2022-09-21T14:05:25;1.10;;;0.80;;
17844;SDS011;9047;53.486;10.218;2022-09-21T14:07:57;2.95;;;1.10;;
17844;SDS011;9047;53.486;10.218;2022-09-21T14:10:26;3.33;;;1.30;;
17844;SDS011;9047;53.486;10.218;2022-09-21T14:12:56;6.05;;;1.30;;
17844;SDS011;9047;53.486;10.218;2022-09-21T14:15:39;5.20;;;1.30;;
17844;SDS011;9047;53.486;10.218;2022-09-21T14:18:17;2.45;;;1.23;;
17844;SDS011;9047;53.486;10.218;2022-09-21T14:21:12;3.70;;;1.10;;
17844;SDS011;9047;53.486;10.218;2022-09-21T14:26:56;1.50;;;1.00;;
17844;SDS011;9047;53.486;10.218;2022-09-21T14:29:30;4.13;;;1.10;;
17844;SDS011;9047;53.486;10.218;2022-09-21T14:32:09;3.95;;;1.10;;
17844;SDS011;9047;53.486;10.218;2022-09-21T14:34:41;2.95;;;1.23;;
17844;SDS011;9047;53.486;10.218;2022-09-21T14:37:13;2.45;;;1.00;;
17844;SDS011;9047;53.486;10.218;2022-09-21T14:39:58;2.40;;;0.85;;
17844;SDS011;9047;53.486;10.218;2022-09-21T14:42:29;3.55;;;1.40;;
17844;SDS011;9047;53.486;10.218;2022-09-21T14:44:58;1.42;;;0.80;;
17844;SDS011;9047;53.486;10.218;2022-09-21T14:47:38;1.00;;;0.80;;
17844;SDS011;9047;53.486;10.218;2022-09-21T14:50:18;2.13;;;0.70;;
17844;SDS011;9047;53.486;10.218;2022-09-21T14:53:06;2.60;;;0.98;;
17844;SDS011;9047;53.486;10.218;2022-09-21T14:56:09;5.30;;;1.45;;
17844;SDS011;9047;53.486;10.218;2022-09-21T14:58:57;4.70;;;2.00;;
17844;SDS011;9047;53.486;10.218;2022-09-21T15:01:37;4.93;;;1.80;;
17844;SDS011;9047;53.486;10.218;2022-09-21T15:06:57;2.75;;;0.85;;
17844;SDS011;9047;53.486;10.218;2022-09-21T15:09:58;3.45;;;1.00;;
17844;SDS011;9047;53.486;10.218;2022-09-21T15:13:05;3.78;;;1.40;;
17844;SDS011;9047;53.486;10.218;2022-09-21T15:15:46;1.45;;;1.00;;
17844;SDS011;9047;53.486;10.218;2022-09-21T15:18:23;2.28;;;0.93;;
17844;SDS011;9047;53.486;10.218;2022-09-21T15:20:56;5.85;;;1.00;;
17844;SDS011;9047;53.486;10.218;2022-09-21T15:23:26;1.17;;;0.90;;
17844;SDS011;9047;53.486;10.218;2022-09-21T15:25:55;2.35;;;1.00;;
17844;SDS011;9047;53.486;10.218;2022-09-21T15:28:26;0.80;;;0.63;;
17844;SDS011;9047;53.486;10.218;2022-09-21T15:30:59;4.38;;;1.05;;
17844;SDS011;9047;53.486;10.218;2022-09-21T15:33:26;2.42;;;0.90;;
17844;SDS011;9047;53.486;10.218;2022-09-21T15:36:00;5.03;;;1.00;;
17844;SDS011;9047;53.486;10.218;2022-09-21T15:38:28;2.83;;;1.25;;